ADDS TAF Board (Experimental) INFO Settings
IDs: Format: Expanded Condensed

KCVG - Cincinnati Intl, KY, US

Issued at 1345 UTC 30 Jul 2016
Updated at 1456 UTC 30 Jul 2016
Time1452Z 30/15Z 30/16Z 30/17Z 30/18Z 30/19Z 30/20Z 30/21Z 30/22Z 30/23Z 31/00Z 31/01Z 31/02Z 31/03Z
Type OBS PRVL PRVL PRVL PRVL PRVL PRVL PRVL PRVL PRVL PRVL PRVL PRVL PRVL
VIS 8 >6 >6 >6 >6 >6 >6 >6 >6 >6 >6 >6 >6 >6
CIG 9 -- -- 35 35 35 35 35 35 35 35 35 -- --
Cover OVC SCT SCT BKN BKN BKN BKN BKN BKN BKN BKN BKN FEW FEW
FltCat IFR VFR VFR VFR VFR VFR VFR VFR VFR VFR VFR VFR VFR VFR
WX -- -- -- VCTS VCTS VCTS VCTS VCTS VCTS VCTS VCTS VCTS -- --
WDir 280 240 240 240 240 240 240 240 240 240 240 240 240 240
WSpd 3 6 6 6 6 6 6 6 6 6 6 6 2 2
WGst -- -- -- -- -- -- -- -- -- -- -- -- -- --
R09/27
XWnd 1 -3 -3 -3 -3 -3 -3 -3 -3 -3 -3 -3 -1 -1
HWnd -3 -5 -5 -5 -5 -5 -5 -5 -5 -5 -5 -5 -2 -2
R18/36
XWnd -3 -5 -5 -5 -5 -5 -5 -5 -5 -5 -5 -5 -2 -2
HWnd -1 3 3 3 3 3 3 3 3 3 3 3 1 1

Raw TAF
KCVG 301345Z 3014/3118 25002KT 3SM BR OVC004
  FM301500 24006KT P6SM FEW008 SCT025
  FM301700 24006KT P6SM VCTS BKN035CB BKN250
  FM310200 24002KT P6SM FEW040
  FM311400 27007KT P6SM BKN035


Raw METAR
KCVG 301452Z 28003KT 8SM BKN009 OVC014 24/22 A2999 RMK AO2 SLP147 OCNL BINOVC T02440217 52006
KCVG 301428Z 26006KT 6SM BR OVC009 24/22 A2999 RMK AO2 OCNL BINOVC
KCVG 301405Z 26007KT 2SM BR OVC005 23/22 A2999 RMK AO2 SFC VIS 5
KCVG 301352Z 25005KT 2SM BR OVC003 23/22 A2998 RMK AO2 SFC VIS 4 SLP144 T02280222
KCVG 301349Z 26006KT 2SM BR OVC003 23/22 A2998 RMK AO2 SFC VIS 4
KCVG 301304Z 27003KT 1/2SM BR OVC003 22/22 A2998 RMK AO2 SFC VIS 2 1/2
KCVG 301252Z 25003KT 1/2SM BR OVC001 22/22 A2997 RMK AO2 SFC VIS 2 1/2 SLP140 T02220217
KCVG 301152Z 26004KT 1/4SM R18C/5500VP6000FT BR OVC001 21/21 A2996 RMK AO2 SFC VIS 1 SLP135 70066 T02110211 10217 20211 53016

METAR Board
Radar Display
Forecast Discussion

TAF Board Legend

Potential Impact
Threat None Slight Moderate High
Visibility (sm) ≥5.1 5.1>X≥3 3>X≥1 <1
Ceiling (100 ft) ≥30.1 30.1>X≥10 10>X≥5 <5
Wind Speed (kt) <10 10≤X<20 20≤X<30 ≥30
Wind Gust (kt) <15 15≤X<25 25≤X<35 ≥35
Weather No Wx Reported VCTS,-TS,-FZRA,SN TS,FZRA +TS,+FZRA,+SN